Weather History for KAVC - March, 2014

Change the Weather History Date:

Saturday, March 22, 2014

  Actual Average (KEMV) Record (KEMV)
Temperature  
Mean Temperature 60 °F -  
Max Temperature 75 °F 58 °F 78 °F (1991)
Min Temperature 46 °F 32 °F 14 °F (1986)
Degree Days  
Heating Degree Days 4    
Growing Degree Days 10 (Base 50)    
Moisture  
Dew Point 38 °F    
Average Humidity 47    
Maximum Humidity 82    
Minimum Humidity 24    
Precipitation  
Precipitation 0.00 in - - ()
Sea Level Pressure  
Sea Level Pressure 30.02 in    
Wind  
Wind Speed 7 mph (SSW)    
Max Wind Speed 16 mph    
Max Gust Speed 26 mph    
Visibility 10 miles    
Events      
Averages and records for this station are not official NWS values.
T = Trace of Precipitation, MM = Missing Value Source: NWS Daily Summary

Daily Weather History Graph

Daily Weather History Graph

Search for Another Location

Airport or City:

Trip Planner

Search our weather history database for the weather conditions in past years. The results will help you decide how hot, cold, wet, or windy it might be!

Date:

Astronomy

Mar. 22, 2014 Rise Set
Actual Time 7:12 AM EDT 7:25 PM EDT
Civil Twilight 6:47 AM EDT 7:51 PM EDT
Nautical Twilight 6:16 AM EDT 8:21 PM EDT
Astronomical Twilight 5:46 AM EDT 8:52 PM EDT
Moon 12:35 AM EDT (3/22) 11:02 AM EDT (3/22)
Length of Visible Light 13h 04m
Length of Day
12h 12m
Waning Gibbous, 65% of the Moon is Illuminated
Mar 22
Waning Gibbous
Mar 23
Last Quarter
Mar 30
New
Apr 7
First Quarter
Apr 15
Full

Hourly Weather History & Observations

Time (EDT) Temp. Windchill Dew Point Humidity Pressure Visibility Wind Dir Wind Speed Gust Speed Precip Events Conditions
12:15 AM 51.8 °F - 32.0 °F 47% 30.09 in 10.0 mi South 6.9 mph - N/A   Clear
12:35 AM 51.8 °F - 32.0 °F 47% 30.09 in 10.0 mi South 6.9 mph - N/A   Clear
12:55 AM 51.8 °F - 32.0 °F 47% 30.09 in 10.0 mi South 6.9 mph - N/A   Clear
1:15 AM 51.8 °F - 32.0 °F 47% 30.08 in 10.0 mi South 6.9 mph - N/A   Clear
1:35 AM 51.8 °F - 32.0 °F 47% 30.08 in 10.0 mi South 5.8 mph - N/A   Clear
1:55 AM 51.8 °F - 33.8 °F 50% 30.08 in 10.0 mi South 5.8 mph - N/A   Clear
2:15 AM 50.0 °F - 33.8 °F 54% 30.07 in 10.0 mi South 6.9 mph - N/A   Clear
2:35 AM 51.8 °F - 33.8 °F 50% 30.07 in 10.0 mi South 5.8 mph - N/A   Clear
2:55 AM 51.8 °F - 33.8 °F 50% 30.06 in 10.0 mi South 5.8 mph - N/A   Clear
3:15 AM 50.0 °F - 33.8 °F 54% 30.06 in 10.0 mi South 5.8 mph - N/A   Clear
3:35 AM 50.0 °F - 33.8 °F 54% 30.04 in 10.0 mi South 6.9 mph - N/A   Clear
3:55 AM 50.0 °F - 33.8 °F 54% 30.04 in 10.0 mi South 6.9 mph - N/A   Clear
4:15 AM 48.2 °F - 35.6 °F 62% 30.04 in 10.0 mi South 5.8 mph - N/A   Clear
4:35 AM 48.2 °F - 33.8 °F 58% 30.04 in 10.0 mi South 6.9 mph - N/A   Clear
4:55 AM 48.2 °F - 33.8 °F 58% 30.04 in 10.0 mi South 8.1 mph - N/A   Clear
5:15 AM 48.2 °F - 33.8 °F 58% 30.04 in 10.0 mi South 6.9 mph - N/A   Clear
5:35 AM 48.2 °F - 33.8 °F 58% 30.04 in 10.0 mi South 8.1 mph - N/A   Clear
5:55 AM 48.2 °F - 35.6 °F 62% 30.04 in 10.0 mi South 8.1 mph - N/A   Clear
6:15 AM 48.2 °F - 35.6 °F 62% 30.04 in 10.0 mi South 8.1 mph - N/A   Clear
6:35 AM 48.2 °F - 35.6 °F 62% 30.04 in 10.0 mi South 8.1 mph - N/A   Clear
6:55 AM 48.2 °F - 35.6 °F 62% 30.04 in 10.0 mi South 8.1 mph - N/A   Clear
7:15 AM 46.4 °F 41.9 °F 35.6 °F 66% 30.04 in 10.0 mi South 9.2 mph - N/A   Clear
7:35 AM 48.2 °F - 37.4 °F 66% 30.04 in 10.0 mi South 6.9 mph - N/A   Clear
7:55 AM 48.2 °F - 37.4 °F 66% 30.04 in 10.0 mi South 6.9 mph - N/A   Clear
8:15 AM 50.0 °F - 39.2 °F 66% 30.04 in 10.0 mi South 6.9 mph - N/A   Clear
8:35 AM 48.2 °F - 39.2 °F 71% 30.04 in 10.0 mi South 6.9 mph - N/A   Clear
8:55 AM 53.6 °F - 41.0 °F 62% 30.04 in 10.0 mi South 6.9 mph - N/A   Clear
9:15 AM 55.4 °F - 41.0 °F 58% 30.04 in 10.0 mi SSW 9.2 mph - N/A   Clear
9:35 AM 57.2 °F - 42.8 °F 59% 30.05 in 10.0 mi South 9.2 mph - N/A   Clear
9:55 AM 60.8 °F - 42.8 °F 52% 30.04 in 10.0 mi SSW 11.5 mph - N/A   Clear
10:15 AM 62.6 °F - 39.2 °F 42% 30.04 in 10.0 mi SSW 12.7 mph - N/A   Clear
10:35 AM 64.4 °F - 37.4 °F 37% 30.04 in 10.0 mi SW 13.8 mph 19.6 mph N/A   Clear
10:55 AM 66.2 °F - 37.4 °F 35% 30.04 in 10.0 mi SW 12.7 mph 19.6 mph N/A   Clear
11:15 AM 66.2 °F - 35.6 °F 32% 30.03 in 10.0 mi SW 13.8 mph 18.4 mph N/A   Clear
11:35 AM 69.8 °F - 35.6 °F 28% 30.03 in 10.0 mi SW 13.8 mph 20.7 mph N/A   Scattered Clouds
11:55 AM 69.8 °F - 35.6 °F 28% 30.03 in 10.0 mi SW 11.5 mph 20.7 mph N/A   Clear
12:15 PM 71.6 °F - 35.6 °F 27% 30.02 in 10.0 mi SW 15.0 mph 21.9 mph N/A   Clear
12:35 PM 71.6 °F - 35.6 °F 27% 30.01 in 10.0 mi WSW 12.7 mph 20.7 mph N/A   Clear
12:55 PM 73.4 °F - 35.6 °F 25% 30.00 in 10.0 mi SW 15.0 mph 18.4 mph N/A   Clear
1:15 PM 73.4 °F - 35.6 °F 25% 29.99 in 10.0 mi SW 10.4 mph 23.0 mph N/A   Clear
1:55 PM 75.2 °F - 35.6 °F 24% 29.98 in 10.0 mi WSW 9.2 mph 20.7 mph N/A   Clear
2:15 PM 75.2 °F - 35.6 °F 24% 29.98 in 10.0 mi WSW 13.8 mph 26.5 mph N/A   Clear
2:35 PM 75.2 °F - 37.4 °F 25% 29.97 in 10.0 mi WSW 12.7 mph 21.9 mph N/A   Clear
2:55 PM 75.2 °F - 35.6 °F 24% 29.97 in 10.0 mi WSW 10.4 mph 21.9 mph N/A   Clear
3:15 PM 75.2 °F - 37.4 °F 25% 29.96 in 10.0 mi SW 16.1 mph 20.7 mph N/A   Clear
3:35 PM 73.4 °F - 37.4 °F 27% 29.96 in 10.0 mi WSW 6.9 mph - N/A   Clear
3:55 PM 75.2 °F - 37.4 °F 25% 29.96 in 10.0 mi WSW 9.2 mph 19.6 mph N/A   Clear
4:15 PM 75.2 °F - 37.4 °F 25% 29.96 in 10.0 mi SW 10.4 mph 19.6 mph N/A   Clear
4:35 PM 73.4 °F - 37.4 °F 27% 29.96 in 10.0 mi WSW 8.1 mph 19.6 mph N/A   Clear
4:55 PM 73.4 °F - 37.4 °F 27% 29.95 in 10.0 mi SW 8.1 mph - N/A   Clear
5:15 PM 73.4 °F - 37.4 °F 27% 29.95 in 10.0 mi WSW 9.2 mph - N/A   Scattered Clouds
5:35 PM 73.4 °F - 37.4 °F 27% 29.96 in 10.0 mi SW 9.2 mph - N/A   Clear
5:55 PM 73.4 °F - 37.4 °F 27% 29.96 in 10.0 mi SW 8.1 mph - N/A   Clear
6:15 PM 71.6 °F - 39.2 °F 31% 29.96 in 10.0 mi SSW 5.8 mph - N/A   Clear
6:35 PM 69.8 °F - 39.2 °F 33% 29.96 in 10.0 mi SSW 4.6 mph - N/A   Clear
6:55 PM 69.8 °F - 39.2 °F 33% 29.96 in 2.5 mi South 3.5 mph - N/A   Haze
7:15 PM 68.0 °F - 39.2 °F 35% 29.97 in 10.0 mi Calm Calm - N/A   Clear
7:35 PM 66.2 °F - 39.2 °F 37% 29.97 in 10.0 mi Calm Calm - N/A   Clear
7:55 PM 62.6 °F - 42.8 °F 48% 29.98 in 10.0 mi Calm Calm - N/A   Clear
8:15 PM 60.8 °F - 42.8 °F 52% 29.98 in 10.0 mi Calm Calm - N/A   Clear
8:35 PM 57.2 °F - 44.6 °F 63% 29.99 in 10.0 mi Calm Calm - N/A   Clear
8:55 PM 57.2 °F - 44.6 °F 63% 30.00 in 10.0 mi Calm Calm - N/A   Clear
9:15 PM 55.4 °F - 44.6 °F 67% 30.00 in 10.0 mi Calm Calm - N/A   Clear
9:35 PM 55.4 °F - 44.6 °F 67% 30.00 in 10.0 mi Calm Calm - N/A   Scattered Clouds
9:55 PM 53.6 °F - 42.8 °F 67% 30.00 in 10.0 mi Calm Calm - N/A   Clear
10:15 PM 51.8 °F - 44.6 °F 76% 30.00 in 10.0 mi Calm Calm - N/A   Clear
10:35 PM 53.6 °F - 42.8 °F 67% 30.00 in 10.0 mi Calm Calm - N/A   Clear
10:55 PM 53.6 °F - 42.8 °F 67% 30.01 in 10.0 mi Calm Calm - N/A   Clear
11:15 PM 55.4 °F - 39.2 °F 54% 30.02 in 10.0 mi Calm Calm - N/A   Clear
11:35 PM 48.2 °F - 42.8 °F 82% 30.02 in 10.0 mi Calm Calm - N/A   Clear
11:55 PM 50.0 °F - 41.0 °F 71% 30.02 in 10.0 mi Calm Calm - N/A   Clear